sensor_id;sensor_type;location;lat;lon;timestamp;P1;durP1;ratioP1;P2;durP2;ratioP2
43504;SDS011;29098;48.184;16.298;2022-08-11T00:01:46;5.35;;;3.40;;
43504;SDS011;29098;48.184;16.298;2022-08-11T00:04:13;8.88;;;3.55;;
43504;SDS011;29098;48.184;16.298;2022-08-11T00:06:40;7.57;;;4.32;;
43504;SDS011;29098;48.184;16.298;2022-08-11T00:09:09;8.93;;;3.53;;
43504;SDS011;29098;48.184;16.298;2022-08-11T00:11:41;5.00;;;3.50;;
43504;SDS011;29098;48.184;16.298;2022-08-11T00:14:14;6.82;;;3.47;;
43504;SDS011;29098;48.184;16.298;2022-08-11T00:16:43;7.18;;;3.60;;
43504;SDS011;29098;48.184;16.298;2022-08-11T00:19:29;6.05;;;3.65;;
43504;SDS011;29098;48.184;16.298;2022-08-11T00:21:58;4.90;;;3.10;;
43504;SDS011;29098;48.184;16.298;2022-08-11T00:24:31;5.70;;;3.00;;
43504;SDS011;29098;48.184;16.298;2022-08-11T00:26:58;5.85;;;3.55;;
43504;SDS011;29098;48.184;16.298;2022-08-11T00:29:24;7.07;;;3.83;;
43504;SDS011;29098;48.184;16.298;2022-08-11T00:31:53;6.93;;;3.10;;
43504;SDS011;29098;48.184;16.298;2022-08-11T00:34:22;7.05;;;3.60;;
43504;SDS011;29098;48.184;16.298;2022-08-11T00:37:07;5.40;;;3.63;;
43504;SDS011;29098;48.184;16.298;2022-08-11T00:39:41;5.13;;;3.58;;
43504;SDS011;29098;48.184;16.298;2022-08-11T00:45:06;6.22;;;4.03;;
43504;SDS011;29098;48.184;16.298;2022-08-11T00:47:51;7.60;;;3.83;;
43504;SDS011;29098;48.184;16.298;2022-08-11T00:54:01;5.70;;;3.55;;
43504;SDS011;29098;48.184;16.298;2022-08-11T01:02:17;4.78;;;3.33;;
43504;SDS011;29098;48.184;16.298;2022-08-11T01:08:26;6.18;;;3.17;;
43504;SDS011;29098;48.184;16.298;2022-08-11T01:10:58;6.82;;;3.63;;
43504;SDS011;29098;48.184;16.298;2022-08-11T01:13:37;5.95;;;3.25;;
43504;SDS011;29098;48.184;16.298;2022-08-11T01:22:46;5.57;;;3.65;;
43504;SDS011;29098;48.184;16.298;2022-08-11T01:28:16;5.32;;;3.22;;
43504;SDS011;29098;48.184;16.298;2022-08-11T01:34:12;8.10;;;4.00;;
43504;SDS011;29098;48.184;16.298;2022-08-11T01:45:41;6.43;;;3.22;;
43504;SDS011;29098;48.184;16.298;2022-08-11T01:51:32;6.15;;;4.30;;
43504;SDS011;29098;48.184;16.298;2022-08-11T01:54:31;5.95;;;3.10;;
43504;SDS011;29098;48.184;16.298;2022-08-11T02:00:09;6.22;;;4.53;;
43504;SDS011;29098;48.184;16.298;2022-08-11T02:02:55;5.95;;;3.60;;
43504;SDS011;29098;48.184;16.298;2022-08-11T02:07:59;5.35;;;3.38;;
43504;SDS011;29098;48.184;16.298;2022-08-11T02:10:57;5.03;;;3.78;;
43504;SDS011;29098;48.184;16.298;2022-08-11T02:18:54;6.50;;;4.25;;
43504;SDS011;29098;48.184;16.298;2022-08-11T02:22:12;7.30;;;4.78;;
43504;SDS011;29098;48.184;16.298;2022-08-11T02:30:45;6.45;;;3.70;;
43504;SDS011;29098;48.184;16.298;2022-08-11T02:33:43;6.70;;;3.60;;
43504;SDS011;29098;48.184;16.298;2022-08-11T02:36:21;5.93;;;3.35;;
43504;SDS011;29098;48.184;16.298;2022-08-11T02:39:02;5.28;;;3.67;;
43504;SDS011;29098;48.184;16.298;2022-08-11T02:56:45;6.55;;;4.05;;
43504;SDS011;29098;48.184;16.298;2022-08-11T03:02:42;5.78;;;3.60;;
43504;SDS011;29098;48.184;16.298;2022-08-11T03:05:40;5.75;;;3.85;;
43504;SDS011;29098;48.184;16.298;2022-08-11T03:11:41;8.60;;;4.35;;
43504;SDS011;29098;48.184;16.298;2022-08-11T03:14:38;6.80;;;3.65;;
43504;SDS011;29098;48.184;16.298;2022-08-11T03:17:51;7.90;;;4.25;;
43504;SDS011;29098;48.184;16.298;2022-08-11T03:23:28;6.32;;;3.55;;
43504;SDS011;29098;48.184;16.298;2022-08-11T03:31:34;6.10;;;4.03;;
43504;SDS011;29098;48.184;16.298;2022-08-11T03:34:08;6.90;;;3.95;;
43504;SDS011;29098;48.184;16.298;2022-08-11T03:50:03;6.68;;;3.75;;
43504;SDS011;29098;48.184;16.298;2022-08-11T03:52:38;9.73;;;3.55;;
43504;SDS011;29098;48.184;16.298;2022-08-11T03:55:13;5.65;;;3.97;;
43504;SDS011;29098;48.184;16.298;2022-08-11T04:03:29;5.47;;;3.65;;
43504;SDS011;29098;48.184;16.298;2022-08-11T04:09:23;6.70;;;3.47;;
43504;SDS011;29098;48.184;16.298;2022-08-11T04:12:32;7.32;;;4.07;;
43504;SDS011;29098;48.184;16.298;2022-08-11T04:27:18;7.57;;;;;
43504;SDS011;29098;48.184;16.298;2022-08-11T04:30:02;6.13;;;4.20;;
43504;SDS011;29098;48.184;16.298;2022-08-11T04:32:56;7.43;;;4.18;;
43504;SDS011;29098;48.184;16.298;2022-08-11T04:38:52;7.43;;;3.95;;
43504;SDS011;29098;48.184;16.298;2022-08-11T04:42:07;6.95;;;4.03;;
43504;SDS011;29098;48.184;16.298;2022-08-11T04:57:34;5.10;;;3.78;;
43504;SDS011;29098;48.184;16.298;2022-08-11T05:00:30;6.63;;;4.18;;
43504;SDS011;29098;48.184;16.298;2022-08-11T05:12:42;6.65;;;3.95;;
43504;SDS011;29098;48.184;16.298;2022-08-11T05:15:19;7.32;;;4.50;;
43504;SDS011;29098;48.184;16.298;2022-08-11T05:18:15;7.78;;;5.05;;
43504;SDS011;29098;48.184;16.298;2022-08-11T05:21:05;6.43;;;4.00;;
43504;SDS011;29098;48.184;16.298;2022-08-11T05:23:54;6.97;;;3.95;;
43504;SDS011;29098;48.184;16.298;2022-08-11T05:26:45;7.72;;;4.40;;
43504;SDS011;29098;48.184;16.298;2022-08-11T05:29:37;8.55;;;4.32;;
43504;SDS011;29098;48.184;16.298;2022-08-11T05:32:24;6.13;;;4.32;;
43504;SDS011;29098;48.184;16.298;2022-08-11T05:35:16;8.38;;;4.50;;
43504;SDS011;29098;48.184;16.298;2022-08-11T05:37:48;7.03;;;4.22;;
43504;SDS011;29098;48.184;16.298;2022-08-11T05:40:33;8.20;;;4.00;;
43504;SDS011;29098;48.184;16.298;2022-08-11T05:43:18;9.60;;;4.40;;
43504;SDS011;29098;48.184;16.298;2022-08-11T05:46:03;8.82;;;3.30;;
43504;SDS011;29098;48.184;16.298;2022-08-11T05:48:49;6.68;;;4.00;;
43504;SDS011;29098;48.184;16.298;2022-08-11T05:51:40;10.15;;;4.10;;
43504;SDS011;29098;48.184;16.298;2022-08-11T05:54:25;9.32;;;4.03;;
43504;SDS011;29098;48.184;16.298;2022-08-11T05:57:25;8.77;;;4.22;;
43504;SDS011;29098;48.184;16.298;2022-08-11T06:00:01;6.50;;;4.35;;
43504;SDS011;29098;48.184;16.298;2022-08-11T06:02:43;7.30;;;4.72;;
43504;SDS011;29098;48.184;16.298;2022-08-11T06:05:13;7.35;;;3.95;;
43504;SDS011;29098;48.184;16.298;2022-08-11T06:07:39;9.52;;;4.72;;
43504;SDS011;29098;48.184;16.298;2022-08-11T06:10:06;6.88;;;3.70;;
43504;SDS011;29098;48.184;16.298;2022-08-11T06:12:33;7.65;;;4.22;;
43504;SDS011;29098;48.184;16.298;2022-08-11T06:15:07;7.05;;;3.58;;
43504;SDS011;29098;48.184;16.298;2022-08-11T06:17:42;9.65;;;4.22;;
43504;SDS011;29098;48.184;16.298;2022-08-11T06:22:40;5.97;;;3.28;;
43504;SDS011;29098;48.184;16.298;2022-08-11T06:25:09;7.68;;;3.35;;
43504;SDS011;29098;48.184;16.298;2022-08-11T06:27:36;9.13;;;3.33;;
43504;SDS011;29098;48.184;16.298;2022-08-11T06:30:03;10.93;;;3.80;;
43504;SDS011;29098;48.184;16.298;2022-08-11T06:32:37;7.07;;;3.70;;
43504;SDS011;29098;48.184;16.298;2022-08-11T06:35:15;7.15;;;3.83;;
43504;SDS011;29098;48.184;16.298;2022-08-11T06:37:56;8.23;;;3.95;;
43504;SDS011;29098;48.184;16.298;2022-08-11T06:46:36;5.68;;;3.00;;
43504;SDS011;29098;48.184;16.298;2022-08-11T06:49:07;6.85;;;3.33;;
43504;SDS011;29098;48.184;16.298;2022-08-11T06:51:52;8.57;;;3.30;;
43504;SDS011;29098;48.184;16.298;2022-08-11T06:54:20;8.18;;;3.85;;
43504;SDS011;29098;48.184;16.298;2022-08-11T06:56:47;5.30;;;3.20;;
43504;SDS011;29098;48.184;16.298;2022-08-11T06:59:32;11.77;;;3.88;;
43504;SDS011;29098;48.184;16.298;2022-08-11T07:02:19;7.88;;;3.25;;
43504;SDS011;29098;48.184;16.298;2022-08-11T07:04:48;4.75;;;2.97;;
43504;SDS011;29098;48.184;16.298;2022-08-11T07:13:34;6.30;;;3.10;;
43504;SDS011;29098;48.184;16.298;2022-08-11T07:16:28;4.82;;;2.78;;
43504;SDS011;29098;48.184;16.298;2022-08-11T07:19:00;4.15;;;2.75;;
43504;SDS011;29098;48.184;16.298;2022-08-11T07:21:46;5.70;;;2.40;;
43504;SDS011;29098;48.184;16.298;2022-08-11T07:24:33;6.47;;;2.50;;
43504;SDS011;29098;48.184;16.298;2022-08-11T07:27:22;5.07;;;2.40;;
43504;SDS011;29098;48.184;16.298;2022-08-11T07:30:09;4.65;;;2.45;;
43504;SDS011;29098;48.184;16.298;2022-08-11T07:32:52;4.28;;;2.28;;
43504;SDS011;29098;48.184;16.298;2022-08-11T07:35:27;5.55;;;2.67;;
43504;SDS011;29098;48.184;16.298;2022-08-11T07:37:59;5.72;;;2.10;;
43504;SDS011;29098;48.184;16.298;2022-08-11T07:40:30;5.53;;;3.22;;
43504;SDS011;29098;48.184;16.298;2022-08-11T07:42:57;4.32;;;2.30;;
43504;SDS011;29098;48.184;16.298;2022-08-11T07:45:24;3.50;;;2.17;;
43504;SDS011;29098;48.184;16.298;2022-08-11T07:48:09;8.07;;;3.03;;
43504;SDS011;29098;48.184;16.298;2022-08-11T07:50:56;4.35;;;2.30;;
43504;SDS011;29098;48.184;16.298;2022-08-11T07:53:41;6.90;;;2.28;;
43504;SDS011;29098;48.184;16.298;2022-08-11T07:56:07;4.03;;;2.80;;
43504;SDS011;29098;48.184;16.298;2022-08-11T07:58:34;8.88;;;2.25;;
43504;SDS011;29098;48.184;16.298;2022-08-11T08:01:23;5.97;;;2.47;;
43504;SDS011;29098;48.184;16.298;2022-08-11T08:04:09;4.65;;;2.53;;
43504;SDS011;29098;48.184;16.298;2022-08-11T08:06:56;6.18;;;2.22;;
43504;SDS011;29098;48.184;16.298;2022-08-11T08:09:41;5.80;;;2.53;;
43504;SDS011;29098;48.184;16.298;2022-08-11T08:12:27;6.60;;;2.38;;
43504;SDS011;29098;48.184;16.298;2022-08-11T08:15:13;3.70;;;2.10;;
43504;SDS011;29098;48.184;16.298;2022-08-11T08:17:58;6.93;;;2.38;;
43504;SDS011;29098;48.184;16.298;2022-08-11T08:20:30;4.15;;;1.90;;
43504;SDS011;29098;48.184;16.298;2022-08-11T08:22:59;5.82;;;2.30;;
43504;SDS011;29098;48.184;16.298;2022-08-11T08:25:29;4.32;;;2.13;;
43504;SDS011;29098;48.184;16.298;2022-08-11T08:27:57;5.68;;;2.35;;
43504;SDS011;29098;48.184;16.298;2022-08-11T08:30:24;6.07;;;2.63;;
43504;SDS011;29098;48.184;16.298;2022-08-11T08:33:11;3.45;;;2.38;;
43504;SDS011;29098;48.184;16.298;2022-08-11T08:35:41;5.57;;;2.25;;
43504;SDS011;29098;48.184;16.298;2022-08-11T08:38:09;4.88;;;2.33;;
43504;SDS011;29098;48.184;16.298;2022-08-11T08:40:35;4.15;;;2.42;;
43504;SDS011;29098;48.184;16.298;2022-08-11T08:43:08;4.88;;;2.03;;
43504;SDS011;29098;48.184;16.298;2022-08-11T08:45:39;6.57;;;2.38;;
43504;SDS011;29098;48.184;16.298;2022-08-11T08:48:10;3.60;;;2.15;;
43504;SDS011;29098;48.184;16.298;2022-08-11T08:50:42;4.00;;;2.55;;
43504;SDS011;29098;48.184;16.298;2022-08-11T08:53:32;4.75;;;2.35;;
43504;SDS011;29098;48.184;16.298;2022-08-11T08:56:00;4.82;;;2.00;;
43504;SDS011;29098;48.184;16.298;2022-08-11T08:58:27;5.57;;;2.40;;
43504;SDS011;29098;48.184;16.298;2022-08-11T09:00:55;4.97;;;2.08;;
43504;SDS011;29098;48.184;16.298;2022-08-11T09:03:24;5.90;;;2.47;;
43504;SDS011;29098;48.184;16.298;2022-08-11T09:05:52;5.72;;;2.53;;
43504;SDS011;29098;48.184;16.298;2022-08-11T09:08:19;4.07;;;2.28;;
43504;SDS011;29098;48.184;16.298;2022-08-11T09:10:47;6.25;;;2.30;;
43504;SDS011;29098;48.184;16.298;2022-08-11T09:13:34;4.28;;;2.38;;
43504;SDS011;29098;48.184;16.298;2022-08-11T09:16:01;6.25;;;2.47;;
43504;SDS011;29098;48.184;16.298;2022-08-11T09:18:29;5.57;;;2.20;;
43504;SDS011;29098;48.184;16.298;2022-08-11T09:20:56;4.43;;;2.72;;
43504;SDS011;29098;48.184;16.298;2022-08-11T09:23:23;3.67;;;2.30;;
43504;SDS011;29098;48.184;16.298;2022-08-11T09:26:08;3.35;;;2.10;;
43504;SDS011;29098;48.184;16.298;2022-08-11T09:31:19;3.63;;;2.00;;
43504;SDS011;29098;48.184;16.298;2022-08-11T09:33:46;3.80;;;2.10;;
43504;SDS011;29098;48.184;16.298;2022-08-11T09:36:16;4.97;;;2.20;;
43504;SDS011;29098;48.184;16.298;2022-08-11T09:39:01;5.18;;;2.00;;
43504;SDS011;29098;48.184;16.298;2022-08-11T09:41:47;2.97;;;1.88;;
43504;SDS011;29098;48.184;16.298;2022-08-11T09:44:13;4.97;;;1.73;;
43504;SDS011;29098;48.184;16.298;2022-08-11T09:46:57;3.88;;;1.77;;
43504;SDS011;29098;48.184;16.298;2022-08-11T09:49:25;4.22;;;1.75;;
43504;SDS011;29098;48.184;16.298;2022-08-11T09:51:53;4.28;;;2.72;;
43504;SDS011;29098;48.184;16.298;2022-08-11T09:54:19;4.68;;;1.70;;
43504;SDS011;29098;48.184;16.298;2022-08-11T09:56:47;2.88;;;1.95;;
43504;SDS011;29098;48.184;16.298;2022-08-11T09:59:34;6.55;;;1.92;;
43504;SDS011;29098;48.184;16.298;2022-08-11T10:02:00;3.50;;;1.77;;
43504;SDS011;29098;48.184;16.298;2022-08-11T10:12:22;5.43;;;2.85;;
43504;SDS011;29098;48.184;16.298;2022-08-11T10:15:14;3.78;;;2.20;;
43504;SDS011;29098;48.184;16.298;2022-08-11T10:18:31;5.78;;;2.10;;
43504;SDS011;29098;48.184;16.298;2022-08-11T10:23:52;4.38;;;1.85;;
43504;SDS011;29098;48.184;16.298;2022-08-11T10:26:37;3.63;;;1.98;;
43504;SDS011;29098;48.184;16.298;2022-08-11T10:29:18;5.75;;;1.85;;
43504;SDS011;29098;48.184;16.298;2022-08-11T10:32:13;3.25;;;1.88;;
43504;SDS011;29098;48.184;16.298;2022-08-11T10:35:03;3.85;;;2.70;;
43504;SDS011;29098;48.184;16.298;2022-08-11T10:37:32;4.22;;;1.90;;
43504;SDS011;29098;48.184;16.298;2022-08-11T10:40:02;5.57;;;1.77;;
43504;SDS011;29098;48.184;16.298;2022-08-11T10:42:30;2.80;;;1.55;;
43504;SDS011;29098;48.184;16.298;2022-08-11T10:45:14;4.13;;;1.70;;
43504;SDS011;29098;48.184;16.298;2022-08-11T10:48:00;5.28;;;1.58;;
43504;SDS011;29098;48.184;16.298;2022-08-11T10:50:28;3.30;;;1.45;;
43504;SDS011;29098;48.184;16.298;2022-08-11T10:55:58;4.63;;;2.03;;
43504;SDS011;29098;48.184;16.298;2022-08-11T10:58:42;4.50;;;2.13;;
43504;SDS011;29098;48.184;16.298;2022-08-11T11:01:22;4.38;;;1.92;;
43504;SDS011;29098;48.184;16.298;2022-08-11T11:03:51;7.35;;;2.60;;
43504;SDS011;29098;48.184;16.298;2022-08-11T11:09:17;6.78;;;1.63;;
43504;SDS011;29098;48.184;16.298;2022-08-11T11:11:53;3.67;;;1.80;;
43504;SDS011;29098;48.184;16.298;2022-08-11T11:14:53;3.22;;;1.55;;
43504;SDS011;29098;48.184;16.298;2022-08-11T11:17:43;6.70;;;2.05;;
43504;SDS011;29098;48.184;16.298;2022-08-11T11:20:40;2.97;;;1.75;;
43504;SDS011;29098;48.184;16.298;2022-08-11T11:23:26;5.03;;;2.08;;
43504;SDS011;29098;48.184;16.298;2022-08-11T11:34:41;5.30;;;1.70;;
43504;SDS011;29098;48.184;16.298;2022-08-11T11:36:59;2.95;;;1.52;;
43504;SDS011;29098;48.184;16.298;2022-08-11T11:39:26;3.40;;;1.50;;
43504;SDS011;29098;48.184;16.298;2022-08-11T11:41:56;2.70;;;1.40;;
43504;SDS011;29098;48.184;16.298;2022-08-11T11:44:25;3.35;;;1.60;;
43504;SDS011;29098;48.184;16.298;2022-08-11T11:46:52;4.55;;;1.70;;
43504;SDS011;29098;48.184;16.298;2022-08-11T11:49:22;5.00;;;2.00;;
43504;SDS011;29098;48.184;16.298;2022-08-11T11:51:51;3.10;;;1.50;;
43504;SDS011;29098;48.184;16.298;2022-08-11T11:54:21;5.75;;;1.50;;
43504;SDS011;29098;48.184;16.298;2022-08-11T11:56:49;3.03;;;1.60;;
43504;SDS011;29098;48.184;16.298;2022-08-11T11:59:17;3.35;;;1.40;;
43504;SDS011;29098;48.184;16.298;2022-08-11T12:02:04;7.25;;;1.75;;
43504;SDS011;29098;48.184;16.298;2022-08-11T12:04:31;5.40;;;1.33;;
43504;SDS011;29098;48.184;16.298;2022-08-11T12:06:59;4.90;;;1.90;;
43504;SDS011;29098;48.184;16.298;2022-08-11T12:09:44;5.13;;;2.20;;
43504;SDS011;29098;48.184;16.298;2022-08-11T12:12:11;3.33;;;1.65;;
43504;SDS011;29098;48.184;16.298;2022-08-11T12:14:55;4.10;;;2.00;;
43504;SDS011;29098;48.184;16.298;2022-08-11T12:17:21;4.53;;;1.77;;
43504;SDS011;29098;48.184;16.298;2022-08-11T12:19:47;7.18;;;2.50;;
43504;SDS011;29098;48.184;16.298;2022-08-11T12:22:14;3.35;;;1.58;;
43504;SDS011;29098;48.184;16.298;2022-08-11T12:24:59;3.40;;;1.50;;
43504;SDS011;29098;48.184;16.298;2022-08-11T12:27:44;2.92;;;1.70;;
43504;SDS011;29098;48.184;16.298;2022-08-11T12:30:11;4.47;;;1.50;;
43504;SDS011;29098;48.184;16.298;2022-08-11T12:32:37;2.80;;;1.35;;
43504;SDS011;29098;48.184;16.298;2022-08-11T12:35:04;6.45;;;2.17;;
43504;SDS011;29098;48.184;16.298;2022-08-11T12:37:35;3.38;;;1.63;;
43504;SDS011;29098;48.184;16.298;2022-08-11T12:40:06;3.30;;;1.73;;
43504;SDS011;29098;48.184;16.298;2022-08-11T12:42:57;3.03;;;1.50;;
43504;SDS011;29098;48.184;16.298;2022-08-11T12:45:44;4.65;;;1.80;;
43504;SDS011;29098;48.184;16.298;2022-08-11T12:48:12;4.00;;;1.42;;
43504;SDS011;29098;48.184;16.298;2022-08-11T12:51:02;2.70;;;1.70;;
43504;SDS011;29098;48.184;16.298;2022-08-11T12:53:53;2.70;;;1.20;;
43504;SDS011;29098;48.184;16.298;2022-08-11T12:59:08;5.30;;;1.90;;
43504;SDS011;29098;48.184;16.298;2022-08-11T13:01:53;5.13;;;1.48;;
43504;SDS011;29098;48.184;16.298;2022-08-11T13:07:23;2.17;;;1.40;;
43504;SDS011;29098;48.184;16.298;2022-08-11T13:09:49;2.17;;;1.30;;
43504;SDS011;29098;48.184;16.298;2022-08-11T13:12:16;3.72;;;1.60;;
43504;SDS011;29098;48.184;16.298;2022-08-11T13:15:00;4.28;;;1.45;;
43504;SDS011;29098;48.184;16.298;2022-08-11T13:17:26;2.13;;;1.20;;
43504;SDS011;29098;48.184;16.298;2022-08-11T13:19:53;3.28;;;1.20;;
43504;SDS011;29098;48.184;16.298;2022-08-11T13:22:21;4.05;;;1.33;;
43504;SDS011;29098;48.184;16.298;2022-08-11T13:24:48;7.57;;;2.97;;
43504;SDS011;29098;48.184;16.298;2022-08-11T13:27:16;2.88;;;1.58;;
43504;SDS011;29098;48.184;16.298;2022-08-11T13:29:42;5.28;;;1.60;;
43504;SDS011;29098;48.184;16.298;2022-08-11T13:32:11;3.67;;;1.52;;
43504;SDS011;29098;48.184;16.298;2022-08-11T13:34:38;2.72;;;1.40;;
43504;SDS011;29098;48.184;16.298;2022-08-11T13:37:06;2.92;;;1.35;;
43504;SDS011;29098;48.184;16.298;2022-08-11T13:39:36;2.83;;;1.73;;
43504;SDS011;29098;48.184;16.298;2022-08-11T13:42:08;4.28;;;1.40;;
43504;SDS011;29098;48.184;16.298;2022-08-11T13:44:34;3.10;;;1.52;;
43504;SDS011;29098;48.184;16.298;2022-08-11T13:47:03;3.38;;;1.60;;
43504;SDS011;29098;48.184;16.298;2022-08-11T13:49:35;3.80;;;1.50;;
43504;SDS011;29098;48.184;16.298;2022-08-11T13:52:03;5.78;;;2.00;;
43504;SDS011;29098;48.184;16.298;2022-08-11T13:54:35;2.40;;;1.30;;
43504;SDS011;29098;48.184;16.298;2022-08-11T13:57:05;2.60;;;1.30;;
43504;SDS011;29098;48.184;16.298;2022-08-11T13:59:32;2.95;;;1.50;;
43504;SDS011;29098;48.184;16.298;2022-08-11T14:02:00;2.13;;;1.42;;
43504;SDS011;29098;48.184;16.298;2022-08-11T14:04:33;3.45;;;1.33;;
43504;SDS011;29098;48.184;16.298;2022-08-11T14:07:09;2.90;;;1.50;;
43504;SDS011;29098;48.184;16.298;2022-08-11T14:09:39;4.32;;;1.65;;
43504;SDS011;29098;48.184;16.298;2022-08-11T14:12:14;3.70;;;1.67;;
43504;SDS011;29098;48.184;16.298;2022-08-11T14:15:26;3.20;;;1.30;;
43504;SDS011;29098;48.184;16.298;2022-08-11T14:18:05;2.78;;;1.23;;
43504;SDS011;29098;48.184;16.298;2022-08-11T14:20:38;3.03;;;1.40;;
43504;SDS011;29098;48.184;16.298;2022-08-11T14:23:28;5.38;;;1.60;;
43504;SDS011;29098;48.184;16.298;2022-08-11T14:25:59;4.20;;;1.58;;
43504;SDS011;29098;48.184;16.298;2022-08-11T14:28:44;3.70;;;2.15;;
43504;SDS011;29098;48.184;16.298;2022-08-11T14:31:11;3.53;;;1.67;;
43504;SDS011;29098;48.184;16.298;2022-08-11T14:33:42;3.35;;;1.75;;
43504;SDS011;29098;48.184;16.298;2022-08-11T14:36:09;4.47;;;1.67;;
43504;SDS011;29098;48.184;16.298;2022-08-11T14:38:36;3.30;;;2.08;;
43504;SDS011;29098;48.184;16.298;2022-08-11T14:41:03;5.97;;;1.90;;
43504;SDS011;29098;48.184;16.298;2022-08-11T14:43:49;3.92;;;1.67;;
43504;SDS011;29098;48.184;16.298;2022-08-11T14:46:34;2.90;;;1.55;;
43504;SDS011;29098;48.184;16.298;2022-08-11T14:49:20;6.47;;;2.15;;
43504;SDS011;29098;48.184;16.298;2022-08-11T14:51:47;7.13;;;2.08;;
43504;SDS011;29098;48.184;16.298;2022-08-11T14:54:13;5.95;;;1.90;;
43504;SDS011;29098;48.184;16.298;2022-08-11T14:56:58;5.63;;;1.58;;
43504;SDS011;29098;48.184;16.298;2022-08-11T14:59:24;3.47;;;1.48;;
43504;SDS011;29098;48.184;16.298;2022-08-11T15:01:50;4.80;;;1.80;;
43504;SDS011;29098;48.184;16.298;2022-08-11T15:04:34;4.88;;;1.95;;
43504;SDS011;29098;48.184;16.298;2022-08-11T15:07:00;3.38;;;1.52;;
43504;SDS011;29098;48.184;16.298;2022-08-11T15:09:26;5.05;;;2.10;;
43504;SDS011;29098;48.184;16.298;2022-08-11T15:11:52;3.75;;;1.90;;
43504;SDS011;29098;48.184;16.298;2022-08-11T15:14:36;8.50;;;2.20;;
43504;SDS011;29098;48.184;16.298;2022-08-11T15:17:21;6.10;;;2.47;;
43504;SDS011;29098;48.184;16.298;2022-08-11T15:19:47;4.53;;;2.28;;
43504;SDS011;29098;48.184;16.298;2022-08-11T15:22:33;3.55;;;1.88;;
43504;SDS011;29098;48.184;16.298;2022-08-11T15:25:17;4.22;;;1.95;;
43504;SDS011;29098;48.184;16.298;2022-08-11T15:27:47;5.05;;;1.85;;
43504;SDS011;29098;48.184;16.298;2022-08-11T15:30:35;7.93;;;2.78;;
43504;SDS011;29098;48.184;16.298;2022-08-11T15:33:20;4.22;;;2.03;;
43504;SDS011;29098;48.184;16.298;2022-08-11T15:36:06;6.00;;;2.03;;
43504;SDS011;29098;48.184;16.298;2022-08-11T15:38:59;5.40;;;2.20;;
43504;SDS011;29098;48.184;16.298;2022-08-11T15:44:43;4.47;;;2.20;;
43504;SDS011;29098;48.184;16.298;2022-08-11T15:47:56;3.80;;;2.08;;
43504;SDS011;29098;48.184;16.298;2022-08-11T15:50:31;5.97;;;2.05;;
43504;SDS011;29098;48.184;16.298;2022-08-11T15:52:59;3.20;;;1.80;;
43504;SDS011;29098;48.184;16.298;2022-08-11T15:55:31;3.35;;;2.13;;
43504;SDS011;29098;48.184;16.298;2022-08-11T15:58:02;6.13;;;2.50;;
43504;SDS011;29098;48.184;16.298;2022-08-11T16:00:49;4.45;;;2.10;;
43504;SDS011;29098;48.184;16.298;2022-08-11T16:04:13;3.85;;;2.03;;
43504;SDS011;29098;48.184;16.298;2022-08-11T16:06:56;5.10;;;2.42;;
43504;SDS011;29098;48.184;16.298;2022-08-11T16:09:27;3.88;;;2.10;;
43504;SDS011;29098;48.184;16.298;2022-08-11T16:11:58;4.85;;;2.55;;
43504;SDS011;29098;48.184;16.298;2022-08-11T16:14:26;7.07;;;2.47;;
43504;SDS011;29098;48.184;16.298;2022-08-11T16:17:13;3.95;;;2.10;;
43504;SDS011;29098;48.184;16.298;2022-08-11T16:19:43;4.28;;;2.90;;
43504;SDS011;29098;48.184;16.298;2022-08-11T16:22:15;8.07;;;2.30;;
43504;SDS011;29098;48.184;16.298;2022-08-11T16:24:53;4.75;;;2.03;;
43504;SDS011;29098;48.184;16.298;2022-08-11T16:27:20;5.00;;;2.10;;
43504;SDS011;29098;48.184;16.298;2022-08-11T16:29:48;4.47;;;2.10;;
43504;SDS011;29098;48.184;16.298;2022-08-11T16:32:16;3.97;;;1.80;;
43504;SDS011;29098;48.184;16.298;2022-08-11T16:35:20;4.25;;;2.20;;
43504;SDS011;29098;48.184;16.298;2022-08-11T16:37:58;4.40;;;2.20;;
43504;SDS011;29098;48.184;16.298;2022-08-11T16:40:45;6.35;;;2.13;;
43504;SDS011;29098;48.184;16.298;2022-08-11T16:43:14;4.13;;;1.88;;
43504;SDS011;29098;48.184;16.298;2022-08-11T16:46:02;3.70;;;1.98;;
43504;SDS011;29098;48.184;16.298;2022-08-11T16:49:03;5.88;;;2.42;;
43504;SDS011;29098;48.184;16.298;2022-08-11T16:51:31;6.28;;;2.70;;
43504;SDS011;29098;48.184;16.298;2022-08-11T16:53:57;6.38;;;2.58;;
43504;SDS011;29098;48.184;16.298;2022-08-11T16:56:27;3.72;;;2.08;;
43504;SDS011;29098;48.184;16.298;2022-08-11T16:58:59;6.10;;;2.35;;
43504;SDS011;29098;48.184;16.298;2022-08-11T17:01:39;6.15;;;3.08;;
43504;SDS011;29098;48.184;16.298;2022-08-11T17:04:23;11.68;;;3.30;;
43504;SDS011;29098;48.184;16.298;2022-08-11T17:07:09;4.10;;;2.30;;
43504;SDS011;29098;48.184;16.298;2022-08-11T17:09:56;7.53;;;2.28;;
43504;SDS011;29098;48.184;16.298;2022-08-11T17:12:43;6.35;;;2.22;;
43504;SDS011;29098;48.184;16.298;2022-08-11T17:15:32;8.05;;;2.50;;
43504;SDS011;29098;48.184;16.298;2022-08-11T17:18:21;3.95;;;1.85;;
43504;SDS011;29098;48.184;16.298;2022-08-11T17:21:24;4.93;;;2.20;;
43504;SDS011;29098;48.184;16.298;2022-08-11T17:23:52;3.63;;;2.20;;
43504;SDS011;29098;48.184;16.298;2022-08-11T17:29:23;3.58;;;1.92;;
43504;SDS011;29098;48.184;16.298;2022-08-11T17:31:53;4.75;;;2.10;;
43504;SDS011;29098;48.184;16.298;2022-08-11T17:34:38;6.10;;;2.63;;
43504;SDS011;29098;48.184;16.298;2022-08-11T17:37:24;4.38;;;1.60;;
43504;SDS011;29098;48.184;16.298;2022-08-11T17:39:52;3.85;;;2.00;;
43504;SDS011;29098;48.184;16.298;2022-08-11T17:42:20;4.00;;;1.92;;
43504;SDS011;29098;48.184;16.298;2022-08-11T17:45:06;3.47;;;1.83;;
43504;SDS011;29098;48.184;16.298;2022-08-11T17:47:53;4.95;;;1.95;;
43504;SDS011;29098;48.184;16.298;2022-08-11T17:50:39;5.18;;;2.10;;
43504;SDS011;29098;48.184;16.298;2022-08-11T17:53:15;3.75;;;2.15;;
43504;SDS011;29098;48.184;16.298;2022-08-11T17:58:45;4.83;;;1.90;;
43504;SDS011;29098;48.184;16.298;2022-08-11T18:01:31;5.57;;;2.03;;
43504;SDS011;29098;48.184;16.298;2022-08-11T18:04:02;4.20;;;2.20;;
43504;SDS011;29098;48.184;16.298;2022-08-11T18:06:30;4.03;;;1.98;;
43504;SDS011;29098;48.184;16.298;2022-08-11T18:08:56;3.17;;;2.00;;
43504;SDS011;29098;48.184;16.298;2022-08-11T18:11:44;6.00;;;2.20;;
43504;SDS011;29098;48.184;16.298;2022-08-11T18:14:30;5.57;;;1.70;;
43504;SDS011;29098;48.184;16.298;2022-08-11T18:17:15;3.45;;;1.95;;
43504;SDS011;29098;48.184;16.298;2022-08-11T18:20:00;6.28;;;2.00;;
43504;SDS011;29098;48.184;16.298;2022-08-11T18:22:44;4.93;;;2.00;;
43504;SDS011;29098;48.184;16.298;2022-08-11T18:25:36;5.15;;;2.05;;
43504;SDS011;29098;48.184;16.298;2022-08-11T18:28:25;5.22;;;1.83;;
43504;SDS011;29098;48.184;16.298;2022-08-11T18:31:15;7.60;;;2.00;;
43504;SDS011;29098;48.184;16.298;2022-08-11T18:34:03;5.65;;;2.83;;
43504;SDS011;29098;48.184;16.298;2022-08-11T18:37:02;5.00;;;2.03;;
43504;SDS011;29098;48.184;16.298;2022-08-11T18:39:59;3.72;;;1.85;;
43504;SDS011;29098;48.184;16.298;2022-08-11T18:42:46;3.92;;;1.80;;
43504;SDS011;29098;48.184;16.298;2022-08-11T18:45:33;4.13;;;2.00;;
43504;SDS011;29098;48.184;16.298;2022-08-11T18:48:20;6.88;;;1.95;;
43504;SDS011;29098;48.184;16.298;2022-08-11T18:51:08;4.50;;;1.92;;
43504;SDS011;29098;48.184;16.298;2022-08-11T18:53:54;2.78;;;1.70;;
43504;SDS011;29098;48.184;16.298;2022-08-11T18:56:43;5.30;;;2.20;;
43504;SDS011;29098;48.184;16.298;2022-08-11T18:59:30;4.07;;;2.38;;
43504;SDS011;29098;48.184;16.298;2022-08-11T19:02:18;7.97;;;2.17;;